SAQ203 HUEN-FWKI
Flight info
| Callsign | SAQ203 |
|---|---|
| Flight time | 1h 54m |
| Altitude | 30000 |
| Route | APNAD2B APNAD UG656 DVL |
| Aircraft | B722/M-SDFGHRWY/C |
Departure
| Time | 2026-04-21 23:51 |
|---|---|
| Airport | Entebbe International Airport (HUEN) |
Arrival
| Time | 2026-04-22 01:45 |
|---|---|
| Airport | Kamuzu International Airport (FWKI) |
| Time | Latitude | Longitude | Altitude | Speed | Heading |
|---|---|---|---|---|---|
| 2026-04-21 23:46 | 0.04652 | 32.44083 | 3784 ft | 0 kts | 352° |
| 2026-04-21 23:48 | 0.04695 | 32.44077 | 3784 ft | 12 kts | 352° |
| 2026-04-21 23:48 | 0.04809 | 32.44059 | 3790 ft | 20 kts | 349° |
| 2026-04-21 23:48 | 0.04892 | 32.44019 | 3783 ft | 15 kts | 328° |
| 2026-04-21 23:48 | 0.05014 | 32.43994 | 3779 ft | 21 kts | 353° |
| 2026-04-21 23:49 | 0.05177 | 32.43970 | 3780 ft | 24 kts | 351° |
| 2026-04-21 23:49 | 0.05312 | 32.43921 | 3793 ft | 19 kts | 310° |
| 2026-04-21 23:49 | 0.05387 | 32.43810 | 3795 ft | 20 kts | 303° |
| 2026-04-21 23:49 | 0.05465 | 32.43703 | 3795 ft | 14 kts | 317° |
| 2026-04-21 23:50 | 0.05475 | 32.43642 | 3796 ft | 9 kts | 210° |
| 2026-04-21 23:50 | 0.05327 | 32.43652 | 3787 ft | 43 kts | 172° |
| 2026-04-21 23:50 | 0.04869 | 32.43718 | 3782 ft | 91 kts | 172° |
| 2026-04-21 23:50 | 0.04084 | 32.43826 | 3777 ft | 133 kts | 172° |
| 2026-04-21 23:51 | 0.03422 | 32.43918 | 3778 ft | 156 kts | 173° |
| 2026-04-21 23:51 | 0.02247 | 32.44081 | 3830 ft | 178 kts | 175° |
| 2026-04-21 23:51 | 0.01033 | 32.44251 | 4364 ft | 173 kts | 176° |
| 2026-04-21 23:51 | -0.00159 | 32.44409 | 4885 ft | 171 kts | 173° |
| 2026-04-21 23:52 | -0.01324 | 32.44573 | 5325 ft | 168 kts | 173° |
| 2026-04-21 23:52 | -0.02868 | 32.44787 | 5794 ft | 172 kts | 172° |
| 2026-04-21 23:52 | -0.03683 | 32.44900 | 5989 ft | 178 kts | 172° |
| 2026-04-21 23:52 | -0.04941 | 32.45075 | 6294 ft | 187 kts | 172° |
| 2026-04-21 23:53 | -0.06291 | 32.45263 | 6587 ft | 206 kts | 171° |
| 2026-04-21 23:53 | -0.07779 | 32.45469 | 6898 ft | 226 kts | 171° |
| 2026-04-21 23:53 | -0.09413 | 32.45696 | 7202 ft | 249 kts | 171° |
| 2026-04-21 23:53 | -0.11214 | 32.45946 | 7586 ft | 271 kts | 171° |
| 2026-04-21 23:54 | -0.13065 | 32.46202 | 8405 ft | 273 kts | 170° |
| 2026-04-21 23:54 | -0.14960 | 32.46465 | 9216 ft | 278 kts | 170° |
| 2026-04-21 23:54 | -0.16897 | 32.46734 | 9976 ft | 284 kts | 169° |
| 2026-04-21 23:54 | -0.18868 | 32.47008 | 10691 ft | 288 kts | 169° |
| 2026-04-21 23:55 | -0.20871 | 32.47286 | 11385 ft | 294 kts | 169° |
| 2026-04-21 23:55 | -0.22951 | 32.47576 | 11864 ft | 308 kts | 169° |
| 2026-04-21 23:55 | -0.25122 | 32.47878 | 12278 ft | 324 kts | 170° |
| 2026-04-21 23:55 | -0.27400 | 32.48193 | 12658 ft | 334 kts | 170° |
| 2026-04-21 23:56 | -0.29707 | 32.48512 | 13032 ft | 343 kts | 170° |
| 2026-04-21 23:56 | -0.32103 | 32.48844 | 13392 ft | 351 kts | 170° |
| 2026-04-21 23:56 | -0.34558 | 32.49186 | 13792 ft | 360 kts | 170° |
| 2026-04-21 23:56 | -0.37063 | 32.49533 | 14260 ft | 362 kts | 170° |
| 2026-04-21 23:57 | -0.39572 | 32.49880 | 14719 ft | 367 kts | 170° |
| 2026-04-21 23:57 | -0.42114 | 32.50234 | 15193 ft | 370 kts | 170° |
| 2026-04-21 23:57 | -0.44670 | 32.50590 | 15711 ft | 372 kts | 170° |
| 2026-04-21 23:57 | -0.47253 | 32.50947 | 16205 ft | 375 kts | 170° |
| 2026-04-21 23:58 | -0.49850 | 32.51308 | 16694 ft | 378 kts | 170° |
| 2026-04-21 23:58 | -0.52466 | 32.51672 | 17176 ft | 381 kts | 171° |
| 2026-04-21 23:58 | -0.55069 | 32.52033 | 17650 ft | 384 kts | 171° |
| 2026-04-21 23:58 | -0.57725 | 32.52402 | 18127 ft | 387 kts | 171° |
| 2026-04-21 23:59 | -0.60405 | 32.52775 | 18540 ft | 389 kts | 171° |
| 2026-04-21 23:59 | -0.63099 | 32.53149 | 18944 ft | 392 kts | 171° |
| 2026-04-21 23:59 | -0.65811 | 32.53525 | 19338 ft | 395 kts | 171° |
| 2026-04-21 23:59 | -0.68546 | 32.53905 | 19743 ft | 397 kts | 171° |
| 2026-04-22 00:00 | -0.71290 | 32.54286 | 20132 ft | 400 kts | 171° |
| 2026-04-22 00:00 | -0.74061 | 32.54670 | 20519 ft | 403 kts | 171° |
| 2026-04-22 00:00 | -0.76857 | 32.54946 | 20892 ft | 406 kts | 176° |
| 2026-04-22 00:00 | -0.79693 | 32.54963 | 21271 ft | 409 kts | 180° |
| 2026-04-22 00:01 | -0.82550 | 32.54868 | 21637 ft | 411 kts | 180° |
| 2026-04-22 00:01 | -0.85417 | 32.54893 | 22005 ft | 413 kts | 176° |
| 2026-04-22 00:01 | -0.88304 | 32.55007 | 22376 ft | 416 kts | 176° |
| 2026-04-22 00:01 | -0.91165 | 32.55066 | 22737 ft | 418 kts | 178° |
| 2026-04-22 00:02 | -0.94080 | 32.55063 | 23082 ft | 421 kts | 179° |
| 2026-04-22 00:02 | -0.97019 | 32.55083 | 23422 ft | 423 kts | 178° |
| 2026-04-22 00:02 | -0.99970 | 32.55151 | 23717 ft | 425 kts | 176° |
| 2026-04-22 00:02 | -1.02922 | 32.55341 | 24003 ft | 426 kts | 173° |
| 2026-04-22 00:03 | -1.05866 | 32.55747 | 24305 ft | 427 kts | 170° |
| 2026-04-22 00:03 | -1.08816 | 32.56187 | 24582 ft | 429 kts | 172° |
| 2026-04-22 00:03 | -1.11800 | 32.56505 | 24854 ft | 431 kts | 174° |
| 2026-04-22 00:03 | -1.14797 | 32.56783 | 25123 ft | 433 kts | 173° |
| 2026-04-22 00:04 | -1.17793 | 32.57129 | 25394 ft | 435 kts | 172° |
| 2026-04-22 00:04 | -1.20801 | 32.57515 | 25672 ft | 436 kts | 172° |
| 2026-04-22 00:04 | -1.23782 | 32.57861 | 25947 ft | 437 kts | 173° |
| 2026-04-22 00:04 | -1.26817 | 32.58184 | 26226 ft | 438 kts | 173° |
| 2026-04-22 00:05 | -1.29849 | 32.58525 | 26506 ft | 439 kts | 172° |
| 2026-04-22 00:05 | -1.32881 | 32.58886 | 26795 ft | 440 kts | 172° |
| 2026-04-22 00:05 | -1.35921 | 32.59240 | 27083 ft | 440 kts | 172° |
| 2026-04-22 00:05 | -1.38964 | 32.59581 | 27373 ft | 440 kts | 172° |
| 2026-04-22 00:06 | -1.42013 | 32.59926 | 27660 ft | 440 kts | 172° |
| 2026-04-22 00:06 | -1.45052 | 32.60278 | 27964 ft | 440 kts | 172° |
| 2026-04-22 00:06 | -1.48096 | 32.60630 | 28263 ft | 439 kts | 172° |
| 2026-04-22 00:06 | -1.51136 | 32.60976 | 28567 ft | 439 kts | 172° |
| 2026-04-22 00:07 | -1.54169 | 32.61322 | 28873 ft | 438 kts | 172° |
| 2026-04-22 00:07 | -1.57187 | 32.61669 | 29179 ft | 437 kts | 172° |
| 2026-04-22 00:07 | -1.60211 | 32.62016 | 29491 ft | 436 kts | 172° |
| 2026-04-22 00:07 | -1.63223 | 32.62361 | 29802 ft | 435 kts | 172° |
| 2026-04-22 00:08 | -1.66186 | 32.62700 | 30093 ft | 433 kts | 172° |
| 2026-04-22 00:08 | -1.69213 | 32.63047 | 30354 ft | 431 kts | 172° |
| 2026-04-22 00:08 | -1.72150 | 32.63384 | 30619 ft | 430 kts | 172° |
| 2026-04-22 00:08 | -1.75119 | 32.63725 | 30855 ft | 431 kts | 172° |
| 2026-04-22 00:09 | -1.78128 | 32.64070 | 30854 ft | 438 kts | 172° |
| 2026-04-22 00:09 | -1.84273 | 32.64774 | 30866 ft | 451 kts | 172° |
| 2026-04-22 00:10 | -1.90603 | 32.65498 | 30873 ft | 464 kts | 172° |
| 2026-04-22 00:10 | -1.97105 | 32.66243 | 30874 ft | 476 kts | 172° |
| 2026-04-22 00:11 | -2.03682 | 32.66996 | 30875 ft | 479 kts | 173° |
| 2026-04-22 00:11 | -2.10316 | 32.67757 | 30880 ft | 479 kts | 173° |
| 2026-04-22 00:12 | -2.16937 | 32.68516 | 30882 ft | 479 kts | 173° |
| 2026-04-22 00:12 | -2.23564 | 32.69276 | 30883 ft | 479 kts | 173° |
| 2026-04-22 00:13 | -2.30192 | 32.70036 | 30891 ft | 479 kts | 173° |
| 2026-04-22 00:13 | -2.36820 | 32.70796 | 30896 ft | 479 kts | 173° |
| 2026-04-22 00:14 | -2.43451 | 32.71556 | 30901 ft | 479 kts | 173° |
| 2026-04-22 00:14 | -2.50030 | 32.72310 | 30905 ft | 479 kts | 173° |
| 2026-04-22 00:15 | -2.56659 | 32.73044 | 30912 ft | 479 kts | 173° |
| 2026-04-22 00:15 | -2.63291 | 32.73785 | 30914 ft | 479 kts | 173° |
| 2026-04-22 00:16 | -2.69919 | 32.74522 | 30917 ft | 479 kts | 173° |
| 2026-04-22 00:16 | -2.76548 | 32.75261 | 30919 ft | 479 kts | 173° |
| 2026-04-22 00:17 | -2.83175 | 32.76000 | 30923 ft | 479 kts | 173° |
| 2026-04-22 00:17 | -2.89754 | 32.76733 | 30925 ft | 479 kts | 173° |
| 2026-04-22 00:18 | -2.96381 | 32.77471 | 30925 ft | 479 kts | 173° |
| 2026-04-22 00:18 | -3.03008 | 32.78210 | 30926 ft | 479 kts | 173° |
| 2026-04-22 00:19 | -3.09631 | 32.78948 | 30929 ft | 479 kts | 173° |
| 2026-04-22 00:19 | -3.16260 | 32.79687 | 30929 ft | 479 kts | 173° |
| 2026-04-22 00:20 | -3.22883 | 32.80426 | 30932 ft | 479 kts | 173° |
| 2026-04-22 00:20 | -3.29502 | 32.81164 | 30930 ft | 479 kts | 173° |
| 2026-04-22 00:21 | -3.36125 | 32.81903 | 30927 ft | 479 kts | 173° |
| 2026-04-22 00:21 | -3.42705 | 32.82637 | 30928 ft | 478 kts | 173° |
| 2026-04-22 00:22 | -3.49321 | 32.83375 | 30931 ft | 478 kts | 173° |
| 2026-04-22 00:22 | -3.55940 | 32.84114 | 30932 ft | 478 kts | 173° |
| 2026-04-22 00:23 | -3.62559 | 32.84852 | 30930 ft | 478 kts | 173° |
| 2026-04-22 00:23 | -3.69178 | 32.85591 | 30931 ft | 478 kts | 173° |
| 2026-04-22 00:24 | -3.75748 | 32.86324 | 30930 ft | 478 kts | 173° |
| 2026-04-22 00:24 | -3.82359 | 32.87068 | 30933 ft | 478 kts | 173° |
| 2026-04-22 00:25 | -3.88965 | 32.87827 | 30931 ft | 478 kts | 173° |
| 2026-04-22 00:25 | -3.95561 | 32.88573 | 30935 ft | 477 kts | 173° |
| 2026-04-22 00:26 | -4.02166 | 32.89329 | 30935 ft | 477 kts | 173° |
| 2026-04-22 00:26 | -4.08768 | 32.90078 | 30934 ft | 477 kts | 173° |
| 2026-04-22 00:27 | -4.15324 | 32.90826 | 30932 ft | 477 kts | 173° |
| 2026-04-22 00:27 | -4.21920 | 32.91577 | 30933 ft | 477 kts | 173° |
| 2026-04-22 00:28 | -4.28515 | 32.92329 | 30938 ft | 476 kts | 173° |
| 2026-04-22 00:28 | -4.35116 | 32.93081 | 30935 ft | 477 kts | 173° |
| 2026-04-22 00:29 | -4.41709 | 32.93833 | 30937 ft | 477 kts | 173° |
| 2026-04-22 00:29 | -4.48273 | 32.94582 | 30934 ft | 477 kts | 173° |
| 2026-04-22 00:30 | -4.54873 | 32.95323 | 30938 ft | 477 kts | 173° |
| 2026-04-22 00:30 | -4.61479 | 32.96064 | 30938 ft | 477 kts | 173° |
| 2026-04-22 00:31 | -4.68081 | 32.96807 | 30938 ft | 477 kts | 173° |
| 2026-04-22 00:31 | -4.74700 | 32.97550 | 30937 ft | 478 kts | 173° |
| 2026-04-22 00:32 | -4.81306 | 32.98293 | 30942 ft | 478 kts | 173° |
| 2026-04-22 00:32 | -4.87912 | 32.99035 | 30942 ft | 478 kts | 173° |
| 2026-04-22 00:33 | -4.94480 | 32.99774 | 30943 ft | 478 kts | 173° |
| 2026-04-22 00:33 | -5.01095 | 33.00517 | 30945 ft | 478 kts | 173° |
| 2026-04-22 00:34 | -5.07709 | 33.01269 | 30943 ft | 478 kts | 172° |
| 2026-04-22 00:34 | -5.14317 | 33.02056 | 30940 ft | 478 kts | 172° |
| 2026-04-22 00:35 | -5.20937 | 33.02824 | 30943 ft | 478 kts | 172° |
| 2026-04-22 00:35 | -5.27553 | 33.03604 | 30941 ft | 478 kts | 172° |
| 2026-04-22 00:36 | -5.34164 | 33.04376 | 30944 ft | 478 kts | 172° |
| 2026-04-22 00:36 | -5.40746 | 33.05150 | 30943 ft | 479 kts | 172° |
| 2026-04-22 00:37 | -5.47369 | 33.05925 | 30948 ft | 479 kts | 172° |
| 2026-04-22 00:37 | -5.53989 | 33.06703 | 30946 ft | 479 kts | 172° |
| 2026-04-22 00:38 | -5.60616 | 33.07480 | 30942 ft | 479 kts | 172° |
| 2026-04-22 00:38 | -5.67240 | 33.08222 | 30946 ft | 479 kts | 173° |
| 2026-04-22 00:39 | -5.73871 | 33.08940 | 30946 ft | 479 kts | 172° |
| 2026-04-22 00:39 | -5.80502 | 33.09680 | 30947 ft | 479 kts | 173° |
| 2026-04-22 00:40 | -5.87137 | 33.10403 | 30949 ft | 479 kts | 172° |
| 2026-04-22 00:40 | -5.93727 | 33.11134 | 30949 ft | 479 kts | 173° |
| 2026-04-22 00:41 | -6.00363 | 33.11861 | 30944 ft | 479 kts | 173° |
| 2026-04-22 00:41 | -6.06991 | 33.12594 | 30948 ft | 480 kts | 172° |
| 2026-04-22 00:42 | -6.13624 | 33.13323 | 30946 ft | 479 kts | 172° |
| 2026-04-22 00:42 | -6.20265 | 33.14056 | 30949 ft | 479 kts | 172° |
| 2026-04-22 00:43 | -6.26862 | 33.14783 | 30949 ft | 479 kts | 172° |
| 2026-04-22 00:43 | -6.33505 | 33.15515 | 30951 ft | 479 kts | 172° |
| 2026-04-22 00:44 | -6.39015 | 33.16124 | 30953 ft | 479 kts | 172° |
| 2026-04-22 00:44 | -6.45645 | 33.16855 | 30950 ft | 479 kts | 172° |
| 2026-04-22 00:45 | -6.53347 | 33.17705 | 30952 ft | 479 kts | 172° |
| 2026-04-22 00:45 | -6.58899 | 33.18318 | 30956 ft | 479 kts | 172° |
| 2026-04-22 00:46 | -6.65480 | 33.19045 | 30955 ft | 478 kts | 172° |
| 2026-04-22 00:46 | -6.72100 | 33.19776 | 30961 ft | 478 kts | 172° |
| 2026-04-22 00:47 | -6.78721 | 33.20507 | 30963 ft | 478 kts | 172° |
| 2026-04-22 00:47 | -6.85346 | 33.21240 | 30962 ft | 478 kts | 172° |
| 2026-04-22 00:48 | -6.91916 | 33.21966 | 30963 ft | 478 kts | 172° |
| 2026-04-22 00:48 | -6.98540 | 33.22699 | 30969 ft | 478 kts | 172° |
| 2026-04-22 00:49 | -7.05159 | 33.23431 | 30972 ft | 478 kts | 172° |
| 2026-04-22 00:49 | -7.11764 | 33.24161 | 30974 ft | 478 kts | 172° |
| 2026-04-22 00:50 | -7.18374 | 33.24894 | 30974 ft | 478 kts | 172° |
| 2026-04-22 00:50 | -7.24987 | 33.25625 | 30979 ft | 478 kts | 172° |
| 2026-04-22 00:51 | -7.31596 | 33.26357 | 30982 ft | 478 kts | 172° |
| 2026-04-22 00:51 | -7.38213 | 33.27090 | 30983 ft | 478 kts | 172° |
| 2026-04-22 00:52 | -7.44828 | 33.27823 | 30990 ft | 478 kts | 172° |
| 2026-04-22 00:52 | -7.51442 | 33.28556 | 30991 ft | 478 kts | 172° |
| 2026-04-22 00:53 | -7.58019 | 33.29286 | 30993 ft | 478 kts | 172° |
| 2026-04-22 00:53 | -7.64631 | 33.30019 | 30996 ft | 478 kts | 172° |
| 2026-04-22 00:54 | -7.71244 | 33.30785 | 31003 ft | 478 kts | 171° |
| 2026-04-22 00:54 | -7.77838 | 33.31635 | 31004 ft | 478 kts | 171° |
| 2026-04-22 00:55 | -7.84450 | 33.32430 | 31001 ft | 478 kts | 171° |
| 2026-04-22 00:55 | -7.94361 | 33.33666 | 30999 ft | 478 kts | 171° |
| 2026-04-22 00:56 | -8.00967 | 33.34481 | 31001 ft | 479 kts | 171° |
| 2026-04-22 00:56 | -8.07582 | 33.35302 | 31000 ft | 479 kts | 171° |
| 2026-04-22 00:57 | -8.14197 | 33.36121 | 30993 ft | 479 kts | 171° |
| 2026-04-22 00:57 | -8.20815 | 33.36940 | 30995 ft | 479 kts | 171° |
| 2026-04-22 00:58 | -8.27427 | 33.37760 | 30992 ft | 479 kts | 171° |
| 2026-04-22 00:58 | -8.34049 | 33.38580 | 30993 ft | 479 kts | 171° |
| 2026-04-22 00:59 | -8.40629 | 33.39396 | 30989 ft | 479 kts | 171° |
| 2026-04-22 00:59 | -8.47247 | 33.40218 | 30995 ft | 479 kts | 171° |
| 2026-04-22 01:00 | -8.53868 | 33.41039 | 30994 ft | 479 kts | 171° |
| 2026-04-22 01:00 | -8.60489 | 33.41861 | 30999 ft | 479 kts | 171° |
| 2026-04-22 01:01 | -8.67108 | 33.42682 | 31002 ft | 479 kts | 171° |
| 2026-04-22 01:01 | -8.73724 | 33.43506 | 31013 ft | 479 kts | 171° |
| 2026-04-22 01:02 | -8.80345 | 33.44327 | 31022 ft | 479 kts | 171° |
| 2026-04-22 01:02 | -8.86924 | 33.45146 | 31028 ft | 479 kts | 171° |
| 2026-04-22 01:03 | -8.93550 | 33.45941 | 31034 ft | 479 kts | 172° |
| 2026-04-22 01:03 | -9.00226 | 33.46270 | 31042 ft | 481 kts | 176° |
| 2026-04-22 01:04 | -9.06889 | 33.46691 | 31039 ft | 480 kts | 173° |
| 2026-04-22 01:04 | -9.13557 | 33.47097 | 31042 ft | 480 kts | 175° |
| 2026-04-22 01:05 | -9.20237 | 33.47484 | 31038 ft | 480 kts | 174° |
| 2026-04-22 01:05 | -9.26912 | 33.47905 | 31037 ft | 480 kts | 174° |
| 2026-04-22 01:06 | -9.33585 | 33.48289 | 31030 ft | 480 kts | 174° |
| 2026-04-22 01:06 | -9.40251 | 33.48705 | 31027 ft | 480 kts | 174° |
| 2026-04-22 01:07 | -9.46879 | 33.49092 | 31022 ft | 480 kts | 174° |
| 2026-04-22 01:07 | -9.53546 | 33.49502 | 31010 ft | 480 kts | 174° |
| 2026-04-22 01:08 | -9.60221 | 33.49900 | 31005 ft | 480 kts | 174° |
| 2026-04-22 01:08 | -9.66889 | 33.50362 | 31001 ft | 480 kts | 173° |
| 2026-04-22 01:09 | -9.73543 | 33.50912 | 31003 ft | 480 kts | 173° |
| 2026-04-22 01:09 | -9.80199 | 33.51395 | 31000 ft | 480 kts | 173° |
| 2026-04-22 01:10 | -9.86864 | 33.51927 | 31000 ft | 480 kts | 173° |
| 2026-04-22 01:10 | -9.93483 | 33.52423 | 31000 ft | 480 kts | 173° |
| 2026-04-22 01:11 | -10.00147 | 33.52944 | 31003 ft | 480 kts | 173° |
| 2026-04-22 01:11 | -10.06818 | 33.53453 | 31005 ft | 480 kts | 173° |
| 2026-04-22 01:12 | -10.13483 | 33.53968 | 31007 ft | 480 kts | 173° |
| 2026-04-22 01:12 | -10.20152 | 33.54480 | 31020 ft | 480 kts | 173° |
| 2026-04-22 01:13 | -10.26816 | 33.54995 | 31019 ft | 480 kts | 173° |
| 2026-04-22 01:13 | -10.33478 | 33.55509 | 31023 ft | 480 kts | 173° |
| 2026-04-22 01:14 | -10.40142 | 33.56020 | 31026 ft | 480 kts | 173° |
| 2026-04-22 01:14 | -10.46768 | 33.56534 | 31032 ft | 481 kts | 173° |
| 2026-04-22 01:15 | -10.53444 | 33.57048 | 31035 ft | 481 kts | 173° |
| 2026-04-22 01:15 | -10.60108 | 33.57564 | 31038 ft | 481 kts | 173° |
| 2026-04-22 01:16 | -10.66785 | 33.58078 | 31036 ft | 481 kts | 173° |
| 2026-04-22 01:16 | -10.73457 | 33.58587 | 31032 ft | 481 kts | 173° |
| 2026-04-22 01:17 | -10.80102 | 33.59056 | 31025 ft | 482 kts | 173° |
| 2026-04-22 01:17 | -10.86786 | 33.59552 | 31022 ft | 481 kts | 173° |
| 2026-04-22 01:18 | -10.93473 | 33.60034 | 31022 ft | 481 kts | 173° |
| 2026-04-22 01:18 | -11.00149 | 33.60521 | 31021 ft | 481 kts | 173° |
| 2026-04-22 01:19 | -11.06839 | 33.61009 | 31016 ft | 481 kts | 173° |
| 2026-04-22 01:19 | -11.13521 | 33.61497 | 31012 ft | 481 kts | 173° |
| 2026-04-22 01:20 | -11.20208 | 33.61985 | 31013 ft | 482 kts | 173° |
| 2026-04-22 01:20 | -11.26897 | 33.62473 | 31010 ft | 481 kts | 173° |
| 2026-04-22 01:21 | -11.33586 | 33.62960 | 31010 ft | 481 kts | 173° |
| 2026-04-22 01:21 | -11.40229 | 33.63448 | 31010 ft | 482 kts | 173° |
| 2026-04-22 01:22 | -11.46916 | 33.63934 | 31011 ft | 482 kts | 173° |
| 2026-04-22 01:22 | -11.53578 | 33.64605 | 31012 ft | 480 kts | 168° |
| 2026-04-22 01:23 | -11.60135 | 33.65866 | 31020 ft | 479 kts | 168° |
| 2026-04-22 01:23 | -11.66756 | 33.66813 | 31025 ft | 480 kts | 169° |
| 2026-04-22 01:24 | -11.73343 | 33.67939 | 31022 ft | 480 kts | 168° |
| 2026-04-22 01:24 | -11.79954 | 33.68974 | 31023 ft | 481 kts | 169° |
| 2026-04-22 01:25 | -11.86565 | 33.70049 | 31023 ft | 480 kts | 168° |
| 2026-04-22 01:25 | -11.93133 | 33.71107 | 31024 ft | 481 kts | 169° |
| 2026-04-22 01:26 | -11.99743 | 33.72170 | 31024 ft | 481 kts | 168° |
| 2026-04-22 01:26 | -12.06352 | 33.73242 | 31021 ft | 481 kts | 168° |
| 2026-04-22 01:27 | -12.12977 | 33.74307 | 31020 ft | 481 kts | 168° |
| 2026-04-22 01:27 | -12.19600 | 33.75381 | 31017 ft | 482 kts | 169° |
| 2026-04-22 01:28 | -12.26227 | 33.76450 | 31016 ft | 481 kts | 168° |
| 2026-04-22 01:28 | -12.32859 | 33.77525 | 30598 ft | 485 kts | 168° |
| 2026-04-22 01:29 | -12.36172 | 33.78057 | 29946 ft | 478 kts | 168° |
| 2026-04-22 01:29 | -12.39440 | 33.78585 | 29216 ft | 472 kts | 168° |
| 2026-04-22 01:29 | -12.42661 | 33.79109 | 28504 ft | 466 kts | 168° |
| 2026-04-22 01:29 | -12.45841 | 33.79625 | 27830 ft | 461 kts | 168° |
| 2026-04-22 01:30 | -12.48955 | 33.80127 | 27316 ft | 455 kts | 168° |
| 2026-04-22 01:30 | -12.52071 | 33.80631 | 26856 ft | 452 kts | 168° |
| 2026-04-22 01:30 | -12.55166 | 33.81135 | 26409 ft | 449 kts | 168° |
| 2026-04-22 01:30 | -12.58249 | 33.81635 | 25968 ft | 447 kts | 168° |
| 2026-04-22 01:31 | -12.61310 | 33.82130 | 25527 ft | 444 kts | 168° |
| 2026-04-22 01:31 | -12.64351 | 33.82623 | 25101 ft | 441 kts | 168° |
| 2026-04-22 01:31 | -12.67375 | 33.83114 | 24675 ft | 438 kts | 168° |
| 2026-04-22 01:31 | -12.70378 | 33.83602 | 24262 ft | 436 kts | 168° |
| 2026-04-22 01:32 | -12.73381 | 33.84089 | 23852 ft | 441 kts | 168° |
| 2026-04-22 01:32 | -12.76405 | 33.84579 | 23417 ft | 438 kts | 168° |
| 2026-04-22 01:32 | -12.79399 | 33.85064 | 22931 ft | 434 kts | 168° |
| 2026-04-22 01:32 | -12.82368 | 33.85547 | 22462 ft | 431 kts | 168° |
| 2026-04-22 01:33 | -12.85317 | 33.86028 | 22013 ft | 427 kts | 168° |
| 2026-04-22 01:33 | -12.87257 | 33.86343 | 21721 ft | 425 kts | 168° |
| 2026-04-22 01:33 | -12.90172 | 33.86815 | 21285 ft | 423 kts | 168° |
| 2026-04-22 01:33 | -12.93066 | 33.87285 | 20851 ft | 420 kts | 168° |
| 2026-04-22 01:34 | -12.95943 | 33.87752 | 20429 ft | 417 kts | 168° |
| 2026-04-22 01:34 | -12.98820 | 33.88094 | 20018 ft | 417 kts | 176° |
| 2026-04-22 01:34 | -13.01722 | 33.88014 | 19611 ft | 417 kts | 182° |
| 2026-04-22 01:34 | -13.04604 | 33.87665 | 19218 ft | 415 kts | 186° |
| 2026-04-22 01:35 | -13.07454 | 33.87254 | 18820 ft | 413 kts | 185° |
| 2026-04-22 01:35 | -13.10301 | 33.86985 | 18420 ft | 409 kts | 181° |
| 2026-04-22 01:35 | -13.13133 | 33.86787 | 17983 ft | 407 kts | 182° |
| 2026-04-22 01:35 | -13.15945 | 33.86518 | 17530 ft | 405 kts | 184° |
| 2026-04-22 01:36 | -13.18692 | 33.86202 | 17091 ft | 402 kts | 185° |
| 2026-04-22 01:36 | -13.21464 | 33.85916 | 16642 ft | 399 kts | 184° |
| 2026-04-22 01:36 | -13.24220 | 33.85669 | 16208 ft | 396 kts | 184° |
| 2026-04-22 01:36 | -13.26962 | 33.85410 | 15782 ft | 393 kts | 184° |
| 2026-04-22 01:37 | -13.29676 | 33.85131 | 15363 ft | 391 kts | 185° |
| 2026-04-22 01:37 | -13.32378 | 33.84855 | 14950 ft | 388 kts | 185° |
| 2026-04-22 01:37 | -13.35062 | 33.84595 | 14534 ft | 386 kts | 185° |
| 2026-04-22 01:37 | -13.37739 | 33.84337 | 14129 ft | 383 kts | 185° |
| 2026-04-22 01:38 | -13.40388 | 33.84074 | 13707 ft | 382 kts | 185° |
| 2026-04-22 01:38 | -13.43021 | 33.83805 | 13258 ft | 379 kts | 186° |
| 2026-04-22 01:38 | -13.45546 | 33.83216 | 12822 ft | 377 kts | 200° |
| 2026-04-22 01:38 | -13.47878 | 33.82020 | 12392 ft | 372 kts | 214° |
| 2026-04-22 01:39 | -13.49833 | 33.80349 | 11965 ft | 360 kts | 227° |
| 2026-04-22 01:39 | -13.51449 | 33.78435 | 11542 ft | 350 kts | 232° |
| 2026-04-22 01:39 | -13.52874 | 33.76445 | 11123 ft | 342 kts | 236° |
| 2026-04-22 01:39 | -13.54243 | 33.74479 | 10698 ft | 335 kts | 234° |
| 2026-04-22 01:40 | -13.55648 | 33.72612 | 10376 ft | 326 kts | 232° |
| 2026-04-22 01:40 | -13.57035 | 33.70810 | 10056 ft | 318 kts | 233° |
| 2026-04-22 01:40 | -13.58379 | 33.69066 | 9700 ft | 305 kts | 229° |
| 2026-04-22 01:40 | -13.59864 | 33.67562 | 9318 ft | 294 kts | 220° |
| 2026-04-22 01:41 | -13.61464 | 33.66293 | 8962 ft | 288 kts | 214° |
| 2026-04-22 01:41 | -13.63263 | 33.65402 | 8514 ft | 286 kts | 195° |
| 2026-04-22 01:41 | -13.65162 | 33.65100 | 8095 ft | 274 kts | 178° |
| 2026-04-22 01:41 | -13.67028 | 33.65350 | 7671 ft | 261 kts | 161° |
| 2026-04-22 01:42 | -13.68618 | 33.66040 | 7259 ft | 242 kts | 147° |
| 2026-04-22 01:42 | -13.69891 | 33.67029 | 6822 ft | 219 kts | 132° |
| 2026-04-22 01:42 | -13.70875 | 33.68154 | 6379 ft | 204 kts | 125° |
| 2026-04-22 01:42 | -13.71732 | 33.69262 | 5961 ft | 194 kts | 125° |
| 2026-04-22 01:43 | -13.72575 | 33.70323 | 5696 ft | 186 kts | 126° |
| 2026-04-22 01:43 | -13.73412 | 33.71338 | 5527 ft | 183 kts | 128° |
| 2026-04-22 01:43 | -13.74211 | 33.72274 | 5240 ft | 171 kts | 126° |
| 2026-04-22 01:43 | -13.74902 | 33.73202 | 4961 ft | 158 kts | 123° |
| 2026-04-22 01:44 | -13.75586 | 33.74030 | 4808 ft | 145 kts | 129° |
| 2026-04-22 01:44 | -13.76255 | 33.74832 | 4610 ft | 154 kts | 126° |
| 2026-04-22 01:44 | -13.76957 | 33.75697 | 4376 ft | 158 kts | 130° |
| 2026-04-22 01:44 | -13.77668 | 33.76555 | 4146 ft | 157 kts | 130° |
| 2026-04-22 01:45 | -13.78365 | 33.77401 | 4033 ft | 147 kts | 129° |
| 2026-04-22 01:45 | -13.78859 | 33.78007 | 4031 ft | 75 kts | 129° |
| 2026-04-22 01:45 | -13.79129 | 33.78334 | 4029 ft | 53 kts | 130° |
| 2026-04-22 01:45 | -13.79325 | 33.78575 | 4030 ft | 23 kts | 130° |
| 2026-04-22 01:46 | -13.79310 | 33.78660 | 4030 ft | 13 kts | 39° |
| 2026-04-22 01:46 | -13.79239 | 33.78721 | 4030 ft | 14 kts | 37° |
| 2026-04-22 01:46 | -13.79181 | 33.78695 | 4030 ft | 11 kts | 308° |
| 2026-04-22 01:46 | -13.79129 | 33.78627 | 4031 ft | 13 kts | 309° |
| 2026-04-22 01:47 | -13.79065 | 33.78547 | 4031 ft | 16 kts | 310° |
| 2026-04-22 01:47 | -13.78989 | 33.78455 | 4030 ft | 18 kts | 310° |
| 2026-04-22 01:47 | -13.78904 | 33.78351 | 4031 ft | 20 kts | 310° |
| 2026-04-22 01:47 | -13.78825 | 33.78268 | 4031 ft | 10 kts | 350° |
| 2026-04-22 01:48 | -13.78767 | 33.78300 | 4032 ft | 10 kts | 39° |
| 2026-04-22 01:48 | -13.78713 | 33.78323 | 4032 ft | 8 kts | 0° |
| 2026-04-22 01:48 | -13.78680 | 33.78346 | 4032 ft | 4 kts | 84° |
| 2026-04-22 01:48 | -13.78692 | 33.78374 | 4032 ft | 1 kts | 125° |